createdAt,value
2019-04-30T00:01:27.724Z,4.80
2019-04-30T00:04:08.178Z,4.50
2019-04-30T00:06:39.433Z,5.70
2019-04-30T00:09:19.004Z,4.87
2019-04-30T00:12:01.517Z,5.33
2019-04-30T00:14:40.816Z,5.43
2019-04-30T00:17:10.688Z,5.70
2019-04-30T00:19:40.910Z,5.63
2019-04-30T00:22:15.810Z,5.80
2019-04-30T00:24:49.905Z,5.73
2019-04-30T00:27:26.379Z,6.27
2019-04-30T00:30:07.358Z,6.60
2019-04-30T00:32:39.353Z,7.47
2019-04-30T00:35:07.009Z,8.27
2019-04-30T00:37:35.495Z,8.37
2019-04-30T00:40:05.577Z,8.43
2019-04-30T00:42:35.780Z,8.50
2019-04-30T00:45:10.027Z,8.77
2019-04-30T00:47:39.453Z,7.17
2019-04-30T00:50:09.131Z,7.43
2019-04-30T00:52:38.347Z,6.93
2019-04-30T00:55:09.191Z,6.37
2019-04-30T00:57:43.634Z,6.60
2019-04-30T01:00:10.974Z,5.40
2019-04-30T01:02:51.924Z,4.90
2019-04-30T01:05:21.207Z,5.60
2019-04-30T01:07:51.903Z,5.50
2019-04-30T01:10:24.751Z,5.60
2019-04-30T01:12:52.357Z,6.40
2019-04-30T01:15:21.662Z,7.63
2019-04-30T01:17:53.734Z,7.03
2019-04-30T01:20:24.141Z,7.67
2019-04-30T01:22:53.623Z,6.70
2019-04-30T01:25:23.515Z,6.40
2019-04-30T01:27:53.087Z,6.73
2019-04-30T01:30:23.264Z,6.87
2019-04-30T01:32:56.806Z,6.57
2019-04-30T01:35:23.780Z,6.37
2019-04-30T01:37:54.149Z,6.47
2019-04-30T01:40:23.367Z,6.07
2019-04-30T01:42:52.556Z,6.30
2019-04-30T01:45:23.078Z,6.00
2019-04-30T01:47:52.696Z,5.70
2019-04-30T01:50:22.003Z,5.57
2019-04-30T01:52:54.250Z,5.20
2019-04-30T01:55:42.620Z,5.33
2019-04-30T01:58:21.276Z,5.23
2019-04-30T02:00:56.922Z,4.50
2019-04-30T02:03:26.718Z,3.87
2019-04-30T02:05:55.915Z,4.23
2019-04-30T02:08:25.115Z,4.17
2019-04-30T02:10:54.347Z,3.63
2019-04-30T02:13:23.551Z,3.60
2019-04-30T02:15:52.780Z,3.80
2019-04-30T02:18:21.983Z,3.93
2019-04-30T02:20:51.216Z,4.37
2019-04-30T02:23:20.416Z,4.40
2019-04-30T02:25:49.606Z,4.90
2019-04-30T02:28:19.107Z,5.27
2019-04-30T02:30:50.383Z,6.27
2019-04-30T02:33:20.160Z,5.80
2019-04-30T02:36:19.709Z,5.83
2019-04-30T02:38:51.444Z,5.97
2019-04-30T02:41:21.942Z,5.90
2019-04-30T02:43:53.371Z,5.83
2019-04-30T02:46:25.542Z,6.20
2019-04-30T02:48:59.523Z,5.70
2019-04-30T02:51:30.938Z,6.70
2019-04-30T02:54:14.373Z,6.70
2019-04-30T02:56:45.480Z,6.80
2019-04-30T02:59:14.681Z,8.57
2019-04-30T03:01:43.992Z,11.60
2019-04-30T03:04:13.178Z,10.77
2019-04-30T03:06:42.400Z,11.97
2019-04-30T03:09:11.617Z,9.63
2019-04-30T03:11:41.143Z,12.80
2019-04-30T03:14:10.877Z,12.47
2019-04-30T03:16:55.764Z,12.30
2019-04-30T03:19:34.007Z,10.10
2019-04-30T03:22:10.208Z,9.40
2019-04-30T03:24:39.821Z,9.07
2019-04-30T03:27:09.901Z,9.53
2019-04-30T03:29:40.505Z,11.53
2019-04-30T03:32:13.303Z,9.43
2019-04-30T03:34:42.277Z,11.70
2019-04-30T03:37:11.895Z,11.20
2019-04-30T03:39:41.068Z,13.03
2019-04-30T03:42:10.360Z,14.17
2019-04-30T03:44:40.255Z,14.23
2019-04-30T03:47:11.018Z,14.80
2019-04-30T03:49:40.525Z,13.73
2019-04-30T03:52:13.063Z,14.20
2019-04-30T03:54:40.995Z,12.67
2019-04-30T03:57:10.868Z,12.50
2019-04-30T03:59:40.311Z,12.47
2019-04-30T04:02:30.240Z,13.20
2019-04-30T04:05:15.216Z,13.03
2019-04-30T04:08:05.457Z,12.97
2019-04-30T04:10:56.702Z,12.53
2019-04-30T04:13:25.916Z,14.77
2019-04-30T04:15:55.196Z,15.53
2019-04-30T04:18:24.413Z,14.60
2019-04-30T04:21:07.531Z,15.13
2019-04-30T04:23:24.499Z,16.50
2019-04-30T04:25:53.749Z,16.50
2019-04-30T04:28:22.957Z,16.23
2019-04-30T04:30:52.184Z,16.13
2019-04-30T04:33:21.384Z,17.23
2019-04-30T04:35:50.593Z,16.93
2019-04-30T04:38:20.485Z,17.37
2019-04-30T04:40:50.422Z,16.70
2019-04-30T04:43:20.307Z,18.60
2019-04-30T04:45:50.101Z,17.23
2019-04-30T04:48:22.981Z,16.93
2019-04-30T04:50:50.453Z,14.47
2019-04-30T04:53:19.783Z,17.97
2019-04-30T04:55:49.899Z,18.07
2019-04-30T04:58:21.487Z,19.57
2019-04-30T05:00:50.204Z,19.53
2019-04-30T05:03:36.867Z,18.10
2019-04-30T05:06:06.216Z,18.33
2019-04-30T05:08:35.428Z,19.43
2019-04-30T05:11:04.757Z,20.03
2019-04-30T05:13:34.770Z,19.17
2019-04-30T05:16:04.151Z,18.47
2019-04-30T05:18:33.379Z,17.40
2019-04-30T05:21:02.521Z,16.43
2019-04-30T05:23:31.747Z,17.00
2019-04-30T05:26:01.043Z,16.27
2019-04-30T05:28:30.350Z,15.13
2019-04-30T05:30:59.550Z,15.40
2019-04-30T05:33:28.797Z,14.90
2019-04-30T05:35:59.435Z,14.37
2019-04-30T05:38:31.263Z,13.70
2019-04-30T05:40:59.750Z,14.73
2019-04-30T05:43:29.195Z,14.93
2019-04-30T05:45:58.776Z,13.63
2019-04-30T05:48:28.771Z,15.67
2019-04-30T05:50:59.107Z,15.33
2019-04-30T05:53:28.765Z,14.83
2019-04-30T05:55:59.387Z,15.53
2019-04-30T05:58:29.964Z,15.23
2019-04-30T06:00:59.815Z,17.03
2019-04-30T06:03:32.898Z,17.50
2019-04-30T06:06:00.103Z,17.47
2019-04-30T06:08:36.278Z,16.67
2019-04-30T06:11:19.270Z,18.40
2019-04-30T06:14:05.612Z,18.47
2019-04-30T06:16:34.988Z,18.53
2019-04-30T06:19:04.261Z,19.27
2019-04-30T06:21:33.471Z,19.40
2019-04-30T06:24:02.687Z,19.30
2019-04-30T06:26:31.996Z,19.13
2019-04-30T06:29:01.440Z,19.77
2019-04-30T06:31:34.322Z,20.47
2019-04-30T06:34:01.851Z,19.67
2019-04-30T06:36:31.139Z,20.77
2019-04-30T06:39:00.327Z,20.87
2019-04-30T06:41:29.700Z,20.83
2019-04-30T06:43:59.117Z,20.93
2019-04-30T06:46:28.639Z,19.13
2019-04-30T06:48:59.531Z,18.87
2019-04-30T06:51:30.586Z,19.40
2019-04-30T06:53:59.751Z,19.67
2019-04-30T06:56:28.991Z,20.27
2019-04-30T06:58:59.005Z,21.53
2019-04-30T07:01:29.042Z,21.97
2019-04-30T07:04:00.813Z,21.40
2019-04-30T07:06:32.549Z,21.37
2019-04-30T07:09:39.746Z,20.50
2019-04-30T07:12:09.039Z,21.20
2019-04-30T07:14:41.734Z,21.53
2019-04-30T07:17:09.549Z,23.07
2019-04-30T07:19:53.212Z,21.17
2019-04-30T07:22:09.769Z,22.80
2019-04-30T07:24:39.422Z,21.93
2019-04-30T07:27:09.404Z,22.27
2019-04-30T07:29:39.283Z,20.97
2019-04-30T07:32:09.442Z,21.93
2019-04-30T07:34:39.581Z,21.90
2019-04-30T07:37:14.599Z,20.90
2019-04-30T07:39:39.682Z,21.83
2019-04-30T07:42:09.307Z,19.90
2019-04-30T07:44:39.492Z,19.87
2019-04-30T07:47:09.664Z,18.93
2019-04-30T07:49:49.745Z,20.20
2019-04-30T07:52:11.459Z,17.97
2019-04-30T07:54:40.784Z,19.17
2019-04-30T07:57:09.983Z,17.50
2019-04-30T07:59:39.674Z,16.87
2019-04-30T08:02:13.873Z,17.60
2019-04-30T08:05:05.002Z,17.97
2019-04-30T08:07:34.359Z,17.37
2019-04-30T08:10:04.415Z,16.93
2019-04-30T08:12:36.526Z,17.33
2019-04-30T08:15:05.316Z,17.27
2019-04-30T08:17:34.514Z,18.13
2019-04-30T08:20:03.871Z,16.30
2019-04-30T08:22:33.394Z,17.30
2019-04-30T08:25:02.568Z,16.03
2019-04-30T08:27:31.756Z,16.67
2019-04-30T08:30:00.999Z,15.80
2019-04-30T08:32:30.209Z,16.60
2019-04-30T08:35:01.194Z,16.77
2019-04-30T08:37:30.276Z,15.07
2019-04-30T08:40:00.271Z,15.93
2019-04-30T08:42:34.165Z,15.43
2019-04-30T08:45:02.020Z,12.37
2019-04-30T08:47:31.236Z,13.33
2019-04-30T08:50:02.654Z,13.87
2019-04-30T08:52:31.946Z,14.40
2019-04-30T08:55:13.472Z,13.60
2019-04-30T08:57:32.026Z,14.60
2019-04-30T09:00:01.264Z,14.03
2019-04-30T09:02:31.049Z,13.13
2019-04-30T09:05:04.289Z,13.80
2019-04-30T09:07:33.508Z,14.20
2019-04-30T09:10:04.798Z,14.07
2019-04-30T09:12:33.647Z,14.97
2019-04-30T09:15:02.932Z,13.83
2019-04-30T09:17:32.154Z,13.37
2019-04-30T09:20:01.406Z,13.83
2019-04-30T09:22:30.618Z,12.77
2019-04-30T09:24:59.928Z,13.23
2019-04-30T09:27:29.637Z,13.40
2019-04-30T09:29:58.963Z,13.27
2019-04-30T09:32:29.085Z,12.20
2019-04-30T09:34:58.775Z,13.53
2019-04-30T09:37:28.095Z,13.37
2019-04-30T09:39:59.247Z,13.80
2019-04-30T09:42:29.570Z,13.50
2019-04-30T09:44:59.604Z,13.10
2019-04-30T09:47:29.570Z,13.40
2019-04-30T09:49:59.620Z,12.90
2019-04-30T09:52:30.768Z,14.20
2019-04-30T09:55:00.074Z,13.53
2019-04-30T09:57:29.517Z,12.87
2019-04-30T10:00:00.473Z,14.40
2019-04-30T10:02:29.684Z,14.53
2019-04-30T10:04:59.285Z,13.97
2019-04-30T10:07:29.351Z,14.33
2019-04-30T10:09:59.119Z,14.77
2019-04-30T10:12:29.433Z,14.33
2019-04-30T10:14:59.283Z,13.73
2019-04-30T10:17:42.144Z,14.27
2019-04-30T10:20:14.419Z,14.13
2019-04-30T10:22:43.844Z,14.30
2019-04-30T10:25:13.294Z,13.87
2019-04-30T10:27:42.525Z,13.40
2019-04-30T10:30:12.803Z,13.37
2019-04-30T10:32:41.964Z,13.97
2019-04-30T10:35:12.692Z,14.10
2019-04-30T10:37:41.891Z,13.73
2019-04-30T10:40:11.426Z,14.07
2019-04-30T10:42:40.696Z,13.63
2019-04-30T10:45:10.999Z,13.43
2019-04-30T10:47:40.240Z,12.13
2019-04-30T10:50:10.077Z,13.73
2019-04-30T10:52:39.408Z,12.57
2019-04-30T10:55:09.339Z,13.77
2019-04-30T10:57:39.647Z,13.07
2019-04-30T11:00:12.664Z,13.17
2019-04-30T11:02:41.883Z,11.80
2019-04-30T11:05:11.292Z,13.43
2019-04-30T11:07:40.515Z,12.10
2019-04-30T11:10:10.341Z,12.23
2019-04-30T11:12:39.563Z,12.73
2019-04-30T11:15:09.241Z,12.67
2019-04-30T11:17:39.754Z,12.33
2019-04-30T11:20:10.300Z,12.20
2019-04-30T11:22:39.863Z,12.43
2019-04-30T11:25:10.078Z,12.77
2019-04-30T11:27:40.779Z,11.40
2019-04-30T11:30:20.269Z,12.70
2019-04-30T11:32:42.226Z,10.57
2019-04-30T11:35:11.976Z,10.00
2019-04-30T11:37:41.202Z,9.77
2019-04-30T11:40:12.584Z,10.57
2019-04-30T11:42:41.805Z,10.20
2019-04-30T11:45:12.387Z,9.20
2019-04-30T11:47:52.860Z,9.27
2019-04-30T11:50:14.116Z,9.63
2019-04-30T11:52:43.396Z,9.00
2019-04-30T11:55:12.831Z,9.43
2019-04-30T11:57:42.130Z,8.93
2019-04-30T12:00:18.690Z,9.50
2019-04-30T12:02:52.628Z,9.43
2019-04-30T12:05:20.749Z,8.80
2019-04-30T12:08:02.068Z,9.00
2019-04-30T12:10:39.178Z,8.40
2019-04-30T12:13:24.441Z,8.63
2019-04-30T12:15:54.351Z,8.77
2019-04-30T12:18:23.957Z,8.93
2019-04-30T12:20:53.208Z,8.83
2019-04-30T12:23:22.498Z,9.73
2019-04-30T12:25:51.735Z,9.37
2019-04-30T12:28:21.051Z,10.33
2019-04-30T12:30:50.296Z,9.93
2019-04-30T12:33:19.555Z,10.67
2019-04-30T12:35:51.051Z,10.03
2019-04-30T12:38:19.692Z,9.87
2019-04-30T12:40:48.957Z,10.70
2019-04-30T12:43:18.192Z,10.20
2019-04-30T12:45:52.629Z,10.93
2019-04-30T12:48:23.781Z,10.53
2019-04-30T12:51:04.664Z,10.45
2019-04-30T12:53:51.328Z,11.88
2019-04-30T12:56:45.463Z,12.33
2019-04-30T12:59:14.780Z,13.15
2019-04-30T13:01:44.051Z,12.05
2019-04-30T13:04:13.275Z,13.00
2019-04-30T13:06:42.873Z,13.65
2019-04-30T13:09:13.090Z,12.98
2019-04-30T13:11:42.989Z,11.88
2019-04-30T13:14:12.932Z,11.80
2019-04-30T13:16:42.382Z,12.05
2019-04-30T13:19:11.667Z,12.13
2019-04-30T13:21:40.863Z,11.57
2019-04-30T13:24:10.136Z,11.48
2019-04-30T13:26:39.757Z,11.88
2019-04-30T13:29:14.343Z,12.63
2019-04-30T13:31:43.631Z,12.95
2019-04-30T13:34:34.699Z,13.48
2019-04-30T13:37:03.983Z,14.43
2019-04-30T13:39:49.883Z,13.25
2019-04-30T13:42:29.366Z,13.58
2019-04-30T13:44:58.763Z,14.20
2019-04-30T13:47:29.246Z,13.15
2019-04-30T13:49:59.378Z,14.70
2019-04-30T13:52:28.877Z,15.43
2019-04-30T13:54:59.531Z,14.70
2019-04-30T13:57:28.735Z,15.73
2019-04-30T13:59:58.628Z,14.00
2019-04-30T14:02:30.779Z,14.43
2019-04-30T14:05:14.456Z,14.63
2019-04-30T14:08:05.491Z,13.77
2019-04-30T14:10:39.292Z,14.83
2019-04-30T14:13:09.556Z,16.17
2019-04-30T14:15:38.951Z,16.17
2019-04-30T14:18:09.359Z,15.97
2019-04-30T14:20:38.787Z,15.13
2019-04-30T14:23:08.614Z,15.50
2019-04-30T14:25:38.864Z,15.93
2019-04-30T14:28:09.462Z,15.30
2019-04-30T14:30:39.365Z,15.23
2019-04-30T14:33:09.479Z,15.60
2019-04-30T14:35:38.852Z,15.83
2019-04-30T14:38:09.033Z,15.90
2019-04-30T14:40:40.480Z,16.07
2019-04-30T14:43:19.506Z,15.20
2019-04-30T14:46:06.132Z,16.93
2019-04-30T14:48:41.575Z,16.67
2019-04-30T14:51:11.321Z,16.03
2019-04-30T14:54:05.617Z,14.97
2019-04-30T14:56:51.125Z,16.40
2019-04-30T14:59:39.033Z,15.57
2019-04-30T15:02:45.520Z,16.43
2019-04-30T15:05:16.820Z,16.00
2019-04-30T15:07:46.042Z,16.23
2019-04-30T15:10:15.768Z,16.73
2019-04-30T15:12:44.987Z,15.73
2019-04-30T15:15:14.367Z,16.90
2019-04-30T15:17:43.626Z,17.27
2019-04-30T15:20:13.017Z,17.80
2019-04-30T15:22:48.931Z,18.43
2019-04-30T15:25:18.221Z,17.67
2019-04-30T15:27:49.633Z,18.67
2019-04-30T15:30:21.477Z,18.83
2019-04-30T15:32:52.755Z,18.73
2019-04-30T15:35:21.961Z,19.80
2019-04-30T15:37:52.819Z,18.80
2019-04-30T15:40:22.511Z,18.83
2019-04-30T15:42:53.434Z,18.17
2019-04-30T15:45:22.718Z,18.47
2019-04-30T15:47:51.985Z,18.20
2019-04-30T15:50:21.197Z,18.30
2019-04-30T15:52:50.431Z,18.93
2019-04-30T15:55:19.656Z,19.10
2019-04-30T15:58:04.041Z,19.70
2019-04-30T16:00:33.207Z,18.47
2019-04-30T16:03:09.505Z,19.23
2019-04-30T16:05:41.739Z,19.83
2019-04-30T16:08:36.320Z,19.23
2019-04-30T16:11:11.848Z,19.43
2019-04-30T16:14:18.642Z,20.03
2019-04-30T16:17:05.544Z,21.23
2019-04-30T16:19:34.795Z,20.37
2019-04-30T16:22:06.041Z,19.17
2019-04-30T16:24:38.698Z,19.23
2019-04-30T16:27:09.264Z,19.27
2019-04-30T16:29:40.678Z,19.20
2019-04-30T16:32:09.629Z,20.13
2019-04-30T16:34:39.030Z,17.37
2019-04-30T16:37:08.276Z,18.97
2019-04-30T16:39:37.540Z,19.80
2019-04-30T16:42:09.097Z,18.90
2019-04-30T16:44:38.483Z,19.80
2019-04-30T16:47:14.547Z,20.10
2019-04-30T16:49:38.795Z,19.10
2019-04-30T16:52:09.215Z,19.83
2019-04-30T16:54:39.512Z,20.47
2019-04-30T16:57:10.270Z,21.67
2019-04-30T16:59:41.892Z,21.17
2019-04-30T17:02:13.063Z,20.60
2019-04-30T17:05:08.534Z,21.17
2019-04-30T17:07:59.585Z,21.87
2019-04-30T17:10:56.375Z,21.47
2019-04-30T17:13:47.421Z,22.07
2019-04-30T17:16:19.579Z,22.00
2019-04-30T17:18:49.501Z,20.77
2019-04-30T17:21:19.793Z,21.80
2019-04-30T17:23:50.952Z,22.57
2019-04-30T17:26:20.023Z,20.37
2019-04-30T17:28:49.922Z,20.97
2019-04-30T17:31:19.432Z,21.43
2019-04-30T17:33:48.646Z,21.30
2019-04-30T17:36:18.817Z,18.43
2019-04-30T17:38:48.084Z,19.63
2019-04-30T17:41:17.303Z,18.07
2019-04-30T17:43:46.521Z,20.13
2019-04-30T17:46:15.844Z,20.07
2019-04-30T17:48:45.061Z,18.80
2019-04-30T17:51:14.277Z,19.80
2019-04-30T17:54:01.103Z,19.97
2019-04-30T17:56:30.437Z,17.97
2019-04-30T17:58:59.648Z,19.03
2019-04-30T18:01:28.940Z,18.97
2019-04-30T18:03:58.806Z,18.67
2019-04-30T18:06:28.051Z,18.50
2019-04-30T18:08:57.324Z,18.57
2019-04-30T18:11:26.632Z,18.10
2019-04-30T18:13:55.859Z,19.95
2019-04-30T18:16:25.164Z,19.97
2019-04-30T18:19:00.384Z,18.90
2019-04-30T18:21:33.609Z,17.93
2019-04-30T18:24:30.874Z,17.70
2019-04-30T18:27:09.138Z,18.40
2019-04-30T18:29:38.343Z,17.53
2019-04-30T18:32:09.272Z,17.63
2019-04-30T18:34:39.107Z,17.80
2019-04-30T18:37:09.328Z,17.20
2019-04-30T18:39:38.607Z,18.97
2019-04-30T18:42:10.809Z,17.70
2019-04-30T18:44:38.714Z,18.40
2019-04-30T18:47:09.048Z,17.33
2019-04-30T18:49:39.883Z,18.17
2019-04-30T18:52:09.407Z,18.30
2019-04-30T18:54:39.710Z,17.77
2019-04-30T18:57:09.469Z,17.93
2019-04-30T18:59:39.028Z,18.00
2019-04-30T19:02:11.466Z,18.20
2019-04-30T19:04:41.020Z,18.97
2019-04-30T19:07:23.079Z,18.93
2019-04-30T19:10:00.373Z,18.13
2019-04-30T19:12:48.936Z,18.10
2019-04-30T19:16:14.836Z,19.13
2019-04-30T19:18:28.872Z,18.63
2019-04-30T19:21:00.099Z,17.77
2019-04-30T19:23:29.748Z,18.20
2019-04-30T19:25:59.739Z,16.13
2019-04-30T19:28:29.498Z,17.97
2019-04-30T19:31:01.016Z,17.53
2019-04-30T19:33:32.039Z,17.57
2019-04-30T19:36:02.098Z,17.77
2019-04-30T19:38:32.265Z,18.93
2019-04-30T19:41:02.872Z,18.43
2019-04-30T19:43:32.406Z,19.23
2019-04-30T19:46:02.529Z,19.97
2019-04-30T19:48:32.650Z,20.30
2019-04-30T19:51:02.333Z,21.37
2019-04-30T19:53:32.211Z,22.00
2019-04-30T19:56:02.191Z,22.80
2019-04-30T19:58:47.659Z,23.73
2019-04-30T20:01:03.041Z,23.77
2019-04-30T20:03:32.441Z,23.70
2019-04-30T20:06:02.305Z,24.33
2019-04-30T20:08:32.373Z,23.63
2019-04-30T20:11:03.327Z,23.87
2019-04-30T20:13:37.044Z,23.13
2019-04-30T20:16:04.722Z,22.57
2019-04-30T20:18:34.288Z,23.00
2019-04-30T20:21:09.084Z,22.17
2019-04-30T20:23:38.749Z,20.53
2019-04-30T20:26:09.883Z,22.07
2019-04-30T20:28:42.391Z,20.10
2019-04-30T20:31:11.532Z,20.80
2019-04-30T20:33:41.754Z,20.13
2019-04-30T20:36:12.009Z,20.30
2019-04-30T20:39:18.626Z,19.77
2019-04-30T20:41:51.451Z,18.57
2019-04-30T20:44:20.739Z,19.73
2019-04-30T20:46:49.947Z,20.07
2019-04-30T20:49:19.334Z,20.30
2019-04-30T20:51:55.064Z,20.30
2019-04-30T20:54:19.611Z,18.23
2019-04-30T20:56:51.073Z,19.07
2019-04-30T20:59:19.696Z,20.67
2019-04-30T21:01:49.069Z,19.33
2019-04-30T21:04:20.761Z,20.90
2019-04-30T21:06:49.705Z,21.40
2019-04-30T21:09:18.920Z,22.13
2019-04-30T21:11:49.001Z,19.33
2019-04-30T21:14:19.205Z,21.13
2019-04-30T21:16:48.682Z,21.70
2019-04-30T21:19:18.037Z,21.17
2019-04-30T21:21:47.252Z,21.07
2019-04-30T21:24:16.506Z,22.70
2019-04-30T21:26:45.708Z,23.03
2019-04-30T21:29:16.005Z,22.67
2019-04-30T21:32:03.340Z,22.00
2019-04-30T21:34:51.595Z,22.07
2019-04-30T21:37:20.985Z,21.90
2019-04-30T21:39:50.245Z,23.40
2019-04-30T21:42:19.540Z,21.63
2019-04-30T21:44:48.805Z,23.90
2019-04-30T21:47:18.015Z,22.27
2019-04-30T21:49:47.280Z,23.80
2019-04-30T21:52:16.543Z,22.97
2019-04-30T21:54:45.765Z,23.07
2019-04-30T21:57:14.977Z,23.37
2019-04-30T21:59:44.220Z,23.80
2019-04-30T22:02:13.403Z,23.73
2019-04-30T22:04:42.603Z,24.00
2019-04-30T22:07:11.875Z,22.63
2019-04-30T22:09:41.154Z,22.53
2019-04-30T22:12:10.483Z,20.83
2019-04-30T22:14:39.780Z,21.83
2019-04-30T22:17:09.347Z,21.33
2019-04-30T22:19:38.651Z,21.00
2019-04-30T22:22:09.415Z,23.47
2019-04-30T22:24:38.914Z,22.57
2019-04-30T22:27:08.200Z,23.67
2019-04-30T22:29:41.847Z,22.20
2019-04-30T22:32:09.341Z,20.97
2019-04-30T22:34:38.661Z,20.27
2019-04-30T22:37:08.572Z,22.27
2019-04-30T22:39:49.491Z,22.33
2019-04-30T22:42:39.773Z,23.70
2019-04-30T22:45:36.231Z,22.43
2019-04-30T22:48:05.467Z,20.93
2019-04-30T22:50:34.674Z,20.37
2019-04-30T22:53:04.346Z,21.60
2019-04-30T22:55:33.546Z,20.73
2019-04-30T22:58:02.782Z,21.07
2019-04-30T23:00:39.273Z,19.83
2019-04-30T23:03:39.904Z,20.37
2019-04-30T23:06:09.224Z,20.83
2019-04-30T23:08:38.531Z,21.07
2019-04-30T23:11:07.819Z,21.57
2019-04-30T23:13:37.168Z,20.57
2019-04-30T23:16:09.763Z,20.77
2019-04-30T23:18:39.060Z,21.10
2019-04-30T23:21:08.299Z,21.50
2019-04-30T23:23:37.484Z,21.60
2019-04-30T23:26:09.708Z,19.50
2019-04-30T23:28:39.009Z,19.47
2019-04-30T23:31:08.223Z,20.70
2019-04-30T23:33:37.453Z,19.27
2019-04-30T23:36:06.743Z,20.53
2019-04-30T23:38:35.969Z,20.07
2019-04-30T23:41:05.212Z,22.60
2019-04-30T23:43:34.511Z,22.53
2019-04-30T23:46:03.822Z,21.57
2019-04-30T23:48:33.068Z,22.43
2019-04-30T23:51:02.263Z,20.40
2019-04-30T23:53:31.496Z,21.07
2019-04-30T23:56:00.808Z,19.63
2019-04-30T23:58:30.147Z,20.57
